createdAt,value
2023-02-26T00:01:39.020Z,22.88
2023-02-26T00:04:13.877Z,22.92
2023-02-26T00:06:56.850Z,22.97
2023-02-26T00:09:31.262Z,22.93
2023-02-26T00:12:01.870Z,22.89
2023-02-26T00:14:31.997Z,22.91
2023-02-26T00:17:29.094Z,22.97
2023-02-26T00:20:02.762Z,22.92
2023-02-26T00:22:33.596Z,22.88
2023-02-26T00:25:01.117Z,22.88
2023-02-26T00:27:30.264Z,22.92
2023-02-26T00:30:05.301Z,22.91
2023-02-26T00:32:36.268Z,22.94
2023-02-26T00:35:12.055Z,22.94
2023-02-26T00:38:05.906Z,22.93
2023-02-26T00:40:50.239Z,22.84
2023-02-26T00:43:22.670Z,22.87
2023-02-26T00:45:59.438Z,22.90
2023-02-26T00:48:40.980Z,22.87
2023-02-26T00:51:36.654Z,22.86
2023-02-26T00:54:23.974Z,22.81
2023-02-26T00:56:58.997Z,22.83
2023-02-26T00:59:31.708Z,22.86
2023-02-26T01:02:02.160Z,22.87
2023-02-26T01:04:32.800Z,22.85
2023-02-26T01:07:09.041Z,22.87
2023-02-26T01:09:42.223Z,22.90
2023-02-26T01:12:13.990Z,22.88
2023-02-26T01:14:52.353Z,22.87
2023-02-26T01:17:33.861Z,22.82
2023-02-26T01:20:16.765Z,22.83
2023-02-26T01:22:54.620Z,22.91
2023-02-26T01:25:37.500Z,22.90
2023-02-26T01:28:09.611Z,22.89
2023-02-26T01:30:37.674Z,22.83
2023-02-26T01:33:10.073Z,22.94
2023-02-26T01:35:48.863Z,22.90
2023-02-26T01:38:40.973Z,22.88
2023-02-26T01:41:33.226Z,22.90
2023-02-26T01:44:23.063Z,22.98
2023-02-26T01:46:50.815Z,22.90
2023-02-26T01:49:19.240Z,22.99
2023-02-26T01:51:53.079Z,22.97
2023-02-26T01:54:33.006Z,22.91
2023-02-26T01:57:12.472Z,22.93
2023-02-26T01:59:44.164Z,22.92
2023-02-26T02:02:19.085Z,22.98
2023-02-26T02:04:51.053Z,22.95
2023-02-26T02:07:21.494Z,23.01
2023-02-26T02:09:51.481Z,23.00
2023-02-26T02:12:48.117Z,23.01
2023-02-26T02:15:26.094Z,23.15
2023-02-26T02:18:41.308Z,23.12
2023-02-26T02:21:36.541Z,23.02
2023-02-26T02:24:40.247Z,23.07
2023-02-26T02:27:27.696Z,22.95
2023-02-26T02:30:22.372Z,22.93
2023-02-26T02:32:56.705Z,22.90
2023-02-26T02:35:37.642Z,22.86
2023-02-26T02:38:13.767Z,22.83
2023-02-26T02:40:57.008Z,22.75
2023-02-26T02:43:33.439Z,22.70
2023-02-26T02:46:12.081Z,22.60
2023-02-26T02:48:48.362Z,22.52
2023-02-26T02:51:32.845Z,22.55
2023-02-26T02:54:08.533Z,22.56
2023-02-26T02:57:10.968Z,22.62
2023-02-26T02:59:54.289Z,22.59
2023-02-26T03:02:31.091Z,22.57
2023-02-26T03:05:04.289Z,22.51
2023-02-26T03:07:36.444Z,22.52
2023-02-26T03:10:10.168Z,22.52
2023-02-26T03:12:43.881Z,22.52
2023-02-26T03:15:16.391Z,22.52
2023-02-26T03:18:24.596Z,22.44
2023-02-26T03:21:18.031Z,22.40
2023-02-26T03:24:11.936Z,22.33
2023-02-26T03:26:43.538Z,22.41
2023-02-26T03:29:33.428Z,22.71
2023-02-26T03:32:09.520Z,22.72
2023-02-26T03:35:04.789Z,22.54
2023-02-26T03:37:42.319Z,22.44
2023-02-26T03:40:17.862Z,22.45
2023-02-26T03:43:04.669Z,22.34
2023-02-26T03:45:35.719Z,22.34
2023-02-26T03:48:12.949Z,22.28
2023-02-26T03:50:49.007Z,22.34
2023-02-26T03:53:37.392Z,22.34
2023-02-26T03:56:27.358Z,22.25
2023-02-26T03:59:08.322Z,22.47
2023-02-26T04:02:06.842Z,22.57
2023-02-26T04:04:53.252Z,22.40
2023-02-26T04:07:30.600Z,22.36
2023-02-26T04:09:59.208Z,22.22
2023-02-26T04:12:33.496Z,22.23
2023-02-26T04:15:10.035Z,22.24
2023-02-26T04:17:43.072Z,22.52
2023-02-26T04:20:13.506Z,22.61
2023-02-26T04:22:40.949Z,22.39
2023-02-26T04:25:08.507Z,22.30
2023-02-26T04:27:42.000Z,22.19
2023-02-26T04:30:13.635Z,22.20
2023-02-26T04:32:44.218Z,22.19
2023-02-26T04:35:20.746Z,22.10
2023-02-26T04:37:53.594Z,22.38
2023-02-26T04:40:26.330Z,22.63
2023-02-26T04:42:59.522Z,22.46
2023-02-26T04:45:40.653Z,22.25
2023-02-26T04:48:15.903Z,22.24
2023-02-26T04:50:46.341Z,22.17
2023-02-26T04:53:19.157Z,22.13
2023-02-26T04:55:52.507Z,22.11
2023-02-26T04:58:23.480Z,22.09
2023-02-26T05:01:03.480Z,22.14
2023-02-26T05:03:35.852Z,22.24
2023-02-26T05:06:11.701Z,22.43
2023-02-26T05:08:45.192Z,22.35
2023-02-26T05:11:15.141Z,22.22
2023-02-26T05:13:47.961Z,22.13
2023-02-26T05:16:17.754Z,22.05
2023-02-26T05:18:48.460Z,22.13
2023-02-26T05:21:23.078Z,22.49
2023-02-26T05:23:57.293Z,22.55
2023-02-26T05:26:28.058Z,22.24
2023-02-26T05:29:04.887Z,22.15
2023-02-26T05:31:39.419Z,22.11
2023-02-26T05:34:17.389Z,22.01
2023-02-26T05:36:46.444Z,22.02
2023-02-26T05:39:16.655Z,22.05
2023-02-26T05:41:50.076Z,22.31
2023-02-26T05:44:20.463Z,22.45
2023-02-26T05:46:53.832Z,22.23
2023-02-26T05:49:27.146Z,22.12
2023-02-26T05:52:00.030Z,22.09
2023-02-26T05:54:30.337Z,21.99
2023-02-26T05:57:06.244Z,22.08
2023-02-26T05:59:38.683Z,22.40
2023-02-26T06:02:08.975Z,22.41
2023-02-26T06:04:41.374Z,22.20
2023-02-26T06:07:13.397Z,22.10
2023-02-26T06:09:48.198Z,21.96
2023-02-26T06:12:21.456Z,22.08
2023-02-26T06:14:52.444Z,22.29
2023-02-26T06:17:27.175Z,22.31
2023-02-26T06:20:00.809Z,22.13
2023-02-26T06:22:34.134Z,21.99
2023-02-26T06:25:05.259Z,21.97
2023-02-26T06:27:41.043Z,21.96
2023-02-26T06:30:11.896Z,22.07
2023-02-26T06:32:39.355Z,22.27
2023-02-26T06:35:10.385Z,22.34
2023-02-26T06:37:38.804Z,22.12
2023-02-26T06:40:10.963Z,21.96
2023-02-26T06:42:43.685Z,21.88
2023-02-26T06:45:19.260Z,22.00
2023-02-26T06:47:49.441Z,22.23
2023-02-26T06:50:21.478Z,22.24
2023-02-26T06:52:54.672Z,22.03
2023-02-26T06:55:27.898Z,21.92
2023-02-26T06:58:00.732Z,21.86
2023-02-26T07:00:38.027Z,22.11
2023-02-26T07:03:16.219Z,22.25
2023-02-26T07:05:45.289Z,22.18
2023-02-26T07:08:16.322Z,21.99
2023-02-26T07:10:49.442Z,21.88
2023-02-26T07:13:25.780Z,21.80
2023-02-26T07:15:55.951Z,22.10
2023-02-26T07:18:31.061Z,22.28
2023-02-26T07:21:01.920Z,22.18
2023-02-26T07:23:35.742Z,21.98
2023-02-26T07:26:11.233Z,21.85
2023-02-26T07:28:41.479Z,21.82
2023-02-26T07:31:15.012Z,21.91
2023-02-26T07:33:49.802Z,22.08
2023-02-26T07:36:19.843Z,22.19
2023-02-26T07:38:47.712Z,22.04
2023-02-26T07:41:23.757Z,21.89
2023-02-26T07:43:54.760Z,21.74
2023-02-26T07:46:27.849Z,21.93
2023-02-26T07:48:57.548Z,22.10
2023-02-26T07:51:33.331Z,22.17
2023-02-26T07:54:03.540Z,21.96
2023-02-26T07:56:33.509Z,21.85
2023-02-26T07:59:08.696Z,21.76
2023-02-26T08:01:44.992Z,21.80
2023-02-26T08:04:17.808Z,22.14
2023-02-26T08:06:50.248Z,22.27
2023-02-26T08:09:20.753Z,21.97
2023-02-26T08:11:59.721Z,21.87
2023-02-26T08:14:29.993Z,21.75
2023-02-26T08:17:02.666Z,21.77
2023-02-26T08:19:33.718Z,22.05
2023-02-26T08:22:07.267Z,22.17
2023-02-26T08:24:37.655Z,22.06
2023-02-26T08:27:11.745Z,22.02
2023-02-26T08:29:40.771Z,21.94
2023-02-26T08:32:15.738Z,21.87
2023-02-26T08:34:45.654Z,21.82
2023-02-26T08:37:18.372Z,21.82
2023-02-26T08:39:53.520Z,21.92
2023-02-26T08:42:24.914Z,22.10
2023-02-26T08:44:53.161Z,22.21
2023-02-26T08:47:28.965Z,22.09
2023-02-26T08:50:03.289Z,22.00
2023-02-26T08:52:34.054Z,21.95
2023-02-26T08:55:03.638Z,21.92
2023-02-26T08:57:33.840Z,21.86
2023-02-26T09:00:01.136Z,21.91
2023-02-26T09:02:33.635Z,22.09
2023-02-26T09:05:03.348Z,22.19
2023-02-26T09:07:37.988Z,22.23
2023-02-26T09:10:12.315Z,22.03
2023-02-26T09:12:48.104Z,21.98
2023-02-26T09:15:21.378Z,21.85
2023-02-26T09:17:52.390Z,21.89
2023-02-26T09:20:25.155Z,21.89
2023-02-26T09:22:55.439Z,21.92
2023-02-26T09:25:26.206Z,22.12
2023-02-26T09:27:59.061Z,22.20
2023-02-26T09:30:32.492Z,22.19
2023-02-26T09:33:02.621Z,22.15
2023-02-26T09:35:32.961Z,22.11
2023-02-26T09:38:00.868Z,22.04
2023-02-26T09:40:48.191Z,22.06
2023-02-26T09:43:34.761Z,21.99
2023-02-26T09:46:19.069Z,22.00
2023-02-26T09:48:55.256Z,22.04
2023-02-26T09:51:28.898Z,22.18
2023-02-26T09:54:01.029Z,22.28
2023-02-26T09:56:36.819Z,22.23
2023-02-26T09:59:10.070Z,22.19
2023-02-26T10:01:47.335Z,22.03
2023-02-26T10:04:27.985Z,21.98
2023-02-26T10:07:15.325Z,21.96
2023-02-26T10:10:04.122Z,21.90
2023-02-26T10:12:36.800Z,21.95
2023-02-26T10:15:31.368Z,22.08
2023-02-26T10:18:14.466Z,22.30
2023-02-26T10:21:29.198Z,22.39
2023-02-26T10:24:12.154Z,22.14
2023-02-26T10:26:51.017Z,22.11
2023-02-26T10:29:40.161Z,22.00
2023-02-26T10:32:28.420Z,21.92
2023-02-26T10:35:26.051Z,21.88
2023-02-26T10:38:05.135Z,21.91
2023-02-26T10:40:52.051Z,22.06
2023-02-26T10:43:27.136Z,22.24
2023-02-26T10:46:13.115Z,22.26
2023-02-26T10:49:01.472Z,22.21
2023-02-26T10:51:35.936Z,22.09
2023-02-26T10:54:37.044Z,22.04
2023-02-26T10:57:14.790Z,21.94
2023-02-26T10:59:50.538Z,21.90
2023-02-26T11:02:53.965Z,21.86
2023-02-26T11:05:30.082Z,21.80
2023-02-26T11:08:27.886Z,22.12
2023-02-26T11:11:05.695Z,22.35
2023-02-26T11:13:40.987Z,22.28
2023-02-26T11:16:16.373Z,22.08
2023-02-26T11:18:55.127Z,21.96
2023-02-26T11:21:36.126Z,21.94
2023-02-26T11:24:14.867Z,21.86
2023-02-26T11:26:48.319Z,21.87
2023-02-26T11:29:22.138Z,22.02
2023-02-26T11:31:58.477Z,22.24
2023-02-26T11:34:29.988Z,22.29
2023-02-26T11:36:59.986Z,22.12
2023-02-26T11:39:35.741Z,22.12
2023-02-26T11:42:10.791Z,21.97
2023-02-26T11:44:45.834Z,21.92
2023-02-26T11:47:27.990Z,21.90
2023-02-26T11:50:10.701Z,21.82
2023-02-26T11:52:43.270Z,22.06
2023-02-26T11:55:48.987Z,22.26
2023-02-26T11:58:28.306Z,22.41
2023-02-26T12:01:01.584Z,22.19
2023-02-26T12:03:40.938Z,22.00
2023-02-26T12:06:24.789Z,21.96
2023-02-26T12:08:55.367Z,21.89
2023-02-26T12:11:46.703Z,21.91
2023-02-26T12:14:51.504Z,22.02
2023-02-26T12:17:37.235Z,22.17
2023-02-26T12:20:20.928Z,22.22
2023-02-26T12:23:06.539Z,22.21
2023-02-26T12:26:00.237Z,22.18
2023-02-26T12:29:05.797Z,22.08
2023-02-26T12:32:04.946Z,21.98
2023-02-26T12:35:05.215Z,21.86
2023-02-26T12:38:04.963Z,21.96
2023-02-26T12:40:35.189Z,22.21
2023-02-26T12:43:52.191Z,22.36
2023-02-26T12:46:47.723Z,22.24
2023-02-26T12:49:44.242Z,22.08
2023-02-26T12:52:26.609Z,22.05
2023-02-26T12:55:30.579Z,22.06
2023-02-26T12:58:05.665Z,21.97
2023-02-26T13:00:48.015Z,22.11
2023-02-26T13:03:39.915Z,22.23
2023-02-26T13:06:32.817Z,22.36
2023-02-26T13:09:13.518Z,22.20
2023-02-26T13:11:55.808Z,21.97
2023-02-26T13:14:53.188Z,21.84
2023-02-26T13:17:51.738Z,21.84
2023-02-26T13:20:29.172Z,21.86
2023-02-26T13:23:14.787Z,22.18
2023-02-26T13:25:55.265Z,22.20
2023-02-26T13:28:50.565Z,22.39
2023-02-26T13:31:36.022Z,22.12
2023-02-26T13:34:13.856Z,22.04
2023-02-26T13:36:48.656Z,21.93
2023-02-26T13:39:25.626Z,21.87
2023-02-26T13:42:19.269Z,22.01
2023-02-26T13:45:02.970Z,22.15
2023-02-26T13:47:48.043Z,22.19
2023-02-26T13:50:27.287Z,22.19
2023-02-26T13:53:07.935Z,22.03
2023-02-26T13:55:47.563Z,21.96
2023-02-26T13:58:23.996Z,21.88
2023-02-26T14:01:21.915Z,21.82
2023-02-26T14:04:06.922Z,21.90
2023-02-26T14:06:58.012Z,22.08
2023-02-26T14:09:32.164Z,22.11
2023-02-26T14:12:22.114Z,22.19
2023-02-26T14:15:13.610Z,22.02
2023-02-26T14:17:51.727Z,21.93
2023-02-26T14:20:28.785Z,21.85
2023-02-26T14:23:13.826Z,21.85
2023-02-26T14:25:55.049Z,21.80
2023-02-26T14:28:28.351Z,22.04
2023-02-26T14:31:19.789Z,22.27
2023-02-26T14:34:07.320Z,22.37
2023-02-26T14:36:57.614Z,22.13
2023-02-26T14:39:30.720Z,21.92
2023-02-26T14:42:06.085Z,21.88
2023-02-26T14:44:43.833Z,21.81
2023-02-26T14:47:14.893Z,21.75
2023-02-26T14:49:49.494Z,21.77
2023-02-26T14:52:27.731Z,22.04
2023-02-26T14:55:08.130Z,22.06
2023-02-26T14:57:55.077Z,22.10
2023-02-26T15:00:46.951Z,22.17
2023-02-26T15:03:42.131Z,21.94
2023-02-26T15:06:30.278Z,21.89
2023-02-26T15:09:16.202Z,21.82
2023-02-26T15:11:52.415Z,21.86
2023-02-26T15:14:31.780Z,22.05
2023-02-26T15:17:07.535Z,22.21
2023-02-26T15:19:46.535Z,22.26
2023-02-26T15:22:36.089Z,22.14
2023-02-26T15:25:28.208Z,22.09
2023-02-26T15:28:01.812Z,21.92
2023-02-26T15:30:37.682Z,21.84
2023-02-26T15:33:19.630Z,22.10
2023-02-26T15:35:52.024Z,22.11
2023-02-26T15:38:24.536Z,22.19
2023-02-26T15:41:03.189Z,22.11
2023-02-26T15:43:33.855Z,21.92
2023-02-26T15:46:08.378Z,21.80
2023-02-26T15:48:43.218Z,21.75
2023-02-26T15:51:21.627Z,21.77
2023-02-26T15:53:54.695Z,22.05
2023-02-26T15:56:29.603Z,22.03
2023-02-26T15:59:14.869Z,22.04
2023-02-26T16:01:52.449Z,21.97
2023-02-26T16:04:26.560Z,21.95
2023-02-26T16:06:58.396Z,21.86
2023-02-26T16:09:34.648Z,21.76
2023-02-26T16:12:27.543Z,22.02
2023-02-26T16:15:06.384Z,22.06
2023-02-26T16:17:42.263Z,22.01
2023-02-26T16:20:21.475Z,22.05
2023-02-26T16:22:57.109Z,22.02
2023-02-26T16:25:36.489Z,22.05
2023-02-26T16:28:24.114Z,22.00
2023-02-26T16:30:57.599Z,21.89
2023-02-26T16:33:31.783Z,22.10
2023-02-26T16:36:17.857Z,22.09
2023-02-26T16:39:08.869Z,22.08
2023-02-26T16:41:40.294Z,22.04
2023-02-26T16:44:29.528Z,22.22
2023-02-26T16:47:02.485Z,22.02
2023-02-26T16:49:36.033Z,22.20
2023-02-26T16:52:05.970Z,22.14
2023-02-26T16:54:40.890Z,22.14
2023-02-26T16:57:22.152Z,22.17
2023-02-26T16:59:56.969Z,22.08
2023-02-26T17:02:55.903Z,22.11
2023-02-26T17:05:29.867Z,22.12
2023-02-26T17:08:14.321Z,22.06
2023-02-26T17:10:51.782Z,22.11
2023-02-26T17:13:35.820Z,22.05
2023-02-26T17:16:14.459Z,22.07
2023-02-26T17:18:45.374Z,22.28
2023-02-26T17:21:15.325Z,22.11
2023-02-26T17:23:48.316Z,22.22
2023-02-26T17:26:21.662Z,22.24
2023-02-26T17:28:52.211Z,22.20
2023-02-26T17:31:25.854Z,22.29
2023-02-26T17:33:55.773Z,22.05
2023-02-26T17:36:30.739Z,22.05
2023-02-26T17:39:06.068Z,21.98
2023-02-26T17:41:35.623Z,22.12
2023-02-26T17:44:08.717Z,22.09
2023-02-26T17:46:42.137Z,22.11
2023-02-26T17:49:12.548Z,22.18
2023-02-26T17:51:45.974Z,22.10
2023-02-26T17:54:21.053Z,22.01
2023-02-26T17:56:54.121Z,21.96
2023-02-26T17:59:24.553Z,22.01
2023-02-26T18:02:03.534Z,21.95
2023-02-26T18:04:36.749Z,22.02
2023-02-26T18:07:09.033Z,22.10
2023-02-26T18:09:40.755Z,22.12
2023-02-26T18:12:15.703Z,22.25
2023-02-26T18:14:46.478Z,22.17
2023-02-26T18:17:21.574Z,22.11
2023-02-26T18:19:52.791Z,22.13
2023-02-26T18:22:27.614Z,21.95
2023-02-26T18:25:00.625Z,22.00
2023-02-26T18:27:28.810Z,22.17
2023-02-26T18:30:01.470Z,22.18
2023-02-26T18:32:36.411Z,22.18
2023-02-26T18:35:08.773Z,22.36
2023-02-26T18:37:47.192Z,22.43
2023-02-26T18:40:22.048Z,22.41
2023-02-26T18:42:53.104Z,22.42
2023-02-26T18:45:22.964Z,22.39
2023-02-26T18:47:54.242Z,22.32
2023-02-26T18:50:26.970Z,22.42
2023-02-26T18:52:54.711Z,22.39
2023-02-26T18:55:30.336Z,22.47
2023-02-26T18:58:00.515Z,22.46
2023-02-26T19:00:34.418Z,22.29
2023-02-26T19:03:09.238Z,22.14
2023-02-26T19:05:42.688Z,22.12
2023-02-26T19:08:15.642Z,22.14
2023-02-26T19:10:45.991Z,22.25
2023-02-26T19:13:24.015Z,22.34
2023-02-26T19:15:55.372Z,22.44
2023-02-26T19:18:25.755Z,22.45
2023-02-26T19:20:53.622Z,22.36
2023-02-26T19:23:25.803Z,22.25
2023-02-26T19:25:56.095Z,22.36
2023-02-26T19:28:32.011Z,22.37
2023-02-26T19:31:05.111Z,22.39
2023-02-26T19:33:39.793Z,22.40
2023-02-26T19:36:07.578Z,22.39
2023-02-26T19:38:39.871Z,22.44
2023-02-26T19:41:10.052Z,22.30
2023-02-26T19:43:39.803Z,22.17
2023-02-26T19:46:09.582Z,22.02
2023-02-26T19:48:42.090Z,22.09
2023-02-26T19:51:11.619Z,22.16
2023-02-26T19:53:44.102Z,22.18
2023-02-26T19:56:17.115Z,22.15
2023-02-26T19:58:46.696Z,22.13
2023-02-26T20:01:26.204Z,22.06
2023-02-26T20:03:56.588Z,21.95
2023-02-26T20:06:30.617Z,21.88
2023-02-26T20:09:01.823Z,21.98
2023-02-26T20:11:35.114Z,22.18
2023-02-26T20:14:10.257Z,22.18
2023-02-26T20:16:46.231Z,22.11
2023-02-26T20:19:21.831Z,22.16
2023-02-26T20:21:55.898Z,22.16
2023-02-26T20:24:26.520Z,22.05
2023-02-26T20:26:58.523Z,21.96
2023-02-26T20:29:30.693Z,22.12
2023-02-26T20:32:01.193Z,22.13
2023-02-26T20:34:29.878Z,22.11
2023-02-26T20:37:02.689Z,22.27
2023-02-26T20:39:38.256Z,22.13
2023-02-26T20:42:07.833Z,22.16
2023-02-26T20:44:40.358Z,22.02
2023-02-26T20:47:10.706Z,22.01
2023-02-26T20:49:41.884Z,22.18
2023-02-26T20:52:13.876Z,22.16
2023-02-26T20:54:49.012Z,22.19
2023-02-26T20:57:21.700Z,22.14
2023-02-26T20:59:52.802Z,22.20
2023-02-26T21:02:30.738Z,21.96
2023-02-26T21:05:01.022Z,21.95
2023-02-26T21:07:31.298Z,21.97
2023-02-26T21:10:04.072Z,22.13
2023-02-26T21:12:37.266Z,22.02
2023-02-26T21:15:06.742Z,22.12
2023-02-26T21:17:43.526Z,22.06
2023-02-26T21:20:12.835Z,22.01
2023-02-26T21:22:48.610Z,21.99
2023-02-26T21:25:22.030Z,21.98
2023-02-26T21:27:51.696Z,21.91
2023-02-26T21:30:20.519Z,22.07
2023-02-26T21:32:50.743Z,22.06
2023-02-26T21:35:25.144Z,21.93
2023-02-26T21:37:57.588Z,22.00
2023-02-26T21:40:27.613Z,21.93
2023-02-26T21:43:03.654Z,21.83
2023-02-26T21:45:31.724Z,21.72
2023-02-26T21:48:05.595Z,21.88
2023-02-26T21:50:38.112Z,22.02
2023-02-26T21:53:10.902Z,21.93
2023-02-26T21:55:43.442Z,21.94
2023-02-26T21:58:16.621Z,21.97
2023-02-26T22:00:51.529Z,21.96
2023-02-26T22:03:25.700Z,21.80
2023-02-26T22:05:58.512Z,21.79
2023-02-26T22:08:31.682Z,21.84
2023-02-26T22:11:02.068Z,21.90
2023-02-26T22:13:40.861Z,21.95
2023-02-26T22:16:11.980Z,21.97
2023-02-26T22:18:41.951Z,21.90
2023-02-26T22:21:14.026Z,22.07
2023-02-26T22:23:44.868Z,21.90
2023-02-26T22:26:17.702Z,21.79
2023-02-26T22:28:47.997Z,21.99
2023-02-26T22:31:23.352Z,22.06
2023-02-26T22:33:55.864Z,21.98
2023-02-26T22:36:27.705Z,21.98
2023-02-26T22:39:00.853Z,21.99
2023-02-26T22:41:30.633Z,22.00
2023-02-26T22:44:06.485Z,21.90
2023-02-26T22:46:34.337Z,21.86
2023-02-26T22:49:04.847Z,22.04
2023-02-26T22:51:33.177Z,21.89
2023-02-26T22:54:04.076Z,21.94
2023-02-26T22:56:35.969Z,22.03
2023-02-26T22:59:08.242Z,21.92
2023-02-26T23:01:41.189Z,21.79
2023-02-26T23:04:13.816Z,21.89
2023-02-26T23:06:46.886Z,21.98
2023-02-26T23:09:14.396Z,21.92
2023-02-26T23:11:45.065Z,21.84
2023-02-26T23:14:20.755Z,21.89
2023-02-26T23:16:59.273Z,22.00
2023-02-26T23:19:32.428Z,21.88
2023-02-26T23:22:06.260Z,21.86
2023-02-26T23:24:41.244Z,21.75
2023-02-26T23:27:11.736Z,21.97
2023-02-26T23:29:45.731Z,21.87
2023-02-26T23:32:16.800Z,21.85
2023-02-26T23:34:48.184Z,21.88
2023-02-26T23:37:28.698Z,21.93
2023-02-26T23:39:58.589Z,21.80
2023-02-26T23:42:31.729Z,21.70
2023-02-26T23:45:04.154Z,21.80
2023-02-26T23:47:31.385Z,21.74
2023-02-26T23:50:05.362Z,21.75
2023-02-26T23:52:34.084Z,21.78
2023-02-26T23:55:04.361Z,21.73
2023-02-26T23:57:34.089Z,21.70
